Time;durP1;ratioP1;P1;durP2;ratioP2;P2;SDS_P1;SDS_P2;PMS_P1;PMS_P2;Temp;Humidity;BMP_temperature;BMP_pressure;BME280_temperature;BME280_humidity;BME280_pressure;Samples;Min_cycle;Max_cycle;Signal;HPM_P1;HPM_P2
2023/05/07 03:02:58;;;;;;;15.30;14.50;;;11.50;99.90;;;;;;4955970;29;20957;-80
2023/05/07 03:05:24;;;;;;;14.07;13.33;;;11.60;99.90;;;;;;4958402;29;20182;-80
2023/05/07 03:07:50;;;;;;;13.50;12.80;;;11.60;99.90;;;;;;4963140;29;20181;-80
2023/05/07 03:10:16;;;;;;;13.43;12.63;;;11.60;99.90;;;;;;4973276;28;20181;-80
2023/05/07 03:12:41;;;;;;;10.67;9.60;;;11.50;99.90;;;;;;4982968;23;20213;-73
2023/05/07 03:15:08;;;;;;;8.93;8.30;;;11.50;99.90;;;;;;4982568;28;20195;-73
2023/05/07 03:17:34;;;;;;;9.70;9.10;;;11.40;99.90;;;;;;4993839;28;20187;-73
2023/05/07 03:19:59;;;;;;;9.10;8.43;;;11.30;99.90;;;;;;4994223;28;20552;-73
2023/05/07 03:22:25;;;;;;;9.77;8.23;;;11.30;99.90;;;;;;4993205;28;20189;-73
2023/05/07 03:24:51;;;;;;;9.90;9.23;;;11.30;99.90;;;;;;4981163;28;20213;-73
2023/05/07 03:27:17;;;;;;;9.43;8.93;;;11.30;99.90;;;;;;4964754;28;20191;-73
2023/05/07 03:29:42;;;;;;;6.30;5.70;;;11.20;99.90;;;;;;4968290;28;20181;-73
2023/05/07 03:32:08;;;;;;;6.33;5.80;;;11.20;99.90;;;;;;4974449;28;20231;-73
2023/05/07 03:34:34;;;;;;;7.27;6.63;;;11.00;99.90;;;;;;4982901;28;20200;-73
2023/05/07 03:37:00;;;;;;;9.47;8.67;;;10.80;99.90;;;;;;4993445;28;20202;-73
2023/05/07 03:39:26;;;;;;;33.43;31.47;;;10.80;99.90;;;;;;4994179;28;20181;-73
2023/05/07 03:41:52;;;;;;;24.57;23.23;;;10.80;99.90;;;;;;4992344;28;20186;-73
2023/05/07 03:44:18;;;;;;;20.73;19.53;;;10.80;99.90;;;;;;4985781;28;20216;-73
2023/05/07 03:46:43;;;;;;;24.70;23.43;;;10.90;99.90;;;;;;4955024;28;20221;-73
2023/05/07 03:49:09;;;;;;;49.17;46.60;;;11.00;99.90;;;;;;4953279;29;20181;-73
2023/05/07 03:51:35;;;;;;;61.87;58.03;;;10.90;99.90;;;;;;4953671;29;20260;-73
2023/05/07 03:54:01;;;;;;;49.83;47.33;;;10.90;99.90;;;;;;4964312;28;20203;-73
2023/05/07 03:56:27;;;;;;;54.80;51.87;;;10.90;99.90;;;;;;4992257;28;20558;-73
2023/05/07 03:58:54;;;;;;;48.23;45.77;;;10.90;99.90;;;;;;4993303;28;20199;-73
2023/05/07 04:01:19;;;;;;;44.77;42.37;;;10.90;99.90;;;;;;4992512;28;20242;-73
2023/05/07 04:03:45;;;;;;;48.50;46.00;;;10.80;99.90;;;;;;4990049;28;20812;-73
2023/05/07 04:06:12;;;;;;;43.63;41.37;;;10.80;99.90;;;;;;4973960;28;20185;-73
2023/05/07 04:08:37;;;;;;;37.30;35.37;;;10.80;99.90;;;;;;4973554;28;20217;-73
2023/05/07 04:11:03;;;;;;;29.30;27.70;;;10.80;99.90;;;;;;4972636;28;20258;-73
2023/05/07 04:13:30;;;;;;;23.03;21.80;;;10.80;99.90;;;;;;4973552;28;20248;-73
2023/05/07 04:15:56;;;;;;;64.07;60.83;;;10.90;99.90;;;;;;4992970;28;20613;-74
2023/05/07 04:18:22;;;;;;;10.40;9.70;;;10.90;99.90;;;;;;4992746;28;20216;-73
2023/05/07 04:20:49;;;;;;;10.40;9.80;;;10.90;99.90;;;;;;4993145;28;20199;-73
2023/05/07 04:23:15;;;;;;;31.87;29.77;;;11.00;99.90;;;;;;4954172;28;20689;-73
2023/05/07 04:25:41;;;;;;;50.57;47.83;;;11.00;99.90;;;;;;4989372;28;20219;-73
2023/05/07 04:28:07;;;;;;;13.73;12.93;;;11.10;99.90;;;;;;4991348;28;20184;-73
2023/05/07 04:30:32;;;;;;;9.73;8.87;;;11.20;99.90;;;;;;4991925;28;20243;-73
2023/05/07 04:32:58;;;;;;;9.07;8.37;;;11.20;99.90;;;;;;4993151;28;20210;-73
2023/05/07 04:35:24;;;;;;;7.77;7.23;;;11.20;99.90;;;;;;4978156;28;20542;-73
2023/05/07 04:37:50;;;;;;;10.27;9.57;;;11.30;99.90;;;;;;4972650;28;20236;-73
2023/05/07 04:40:16;;;;;;;13.90;13.07;;;11.30;99.90;;;;;;4973771;28;20199;-72
2023/05/07 04:42:41;;;;;;;20.53;19.17;;;11.40;99.90;;;;;;4979456;28;20185;-73
2023/05/07 04:45:08;;;;;;;32.17;30.13;;;11.50;99.90;;;;;;4999376;28;20184;-73
2023/05/07 04:47:34;;;;;;;12.20;11.37;;;11.60;99.90;;;;;;4995281;28;20188;-72
2023/05/07 04:50:00;;;;;;;9.13;8.63;;;11.70;99.90;;;;;;4996347;28;20211;-75
2023/05/07 04:52:26;;;;;;;11.47;10.30;;;11.80;99.90;;;;;;4994550;28;20651;-74
2023/05/07 04:54:52;;;;;;;6.47;6.07;;;12.00;99.90;;;;;;4992075;28;20208;-74
2023/05/07 04:57:18;;;;;;;10.37;9.87;;;12.20;99.90;;;;;;4991314;28;20176;-74
2023/05/07 04:59:44;;;;;;;9.70;9.00;;;12.50;99.90;;;;;;4991504;28;20195;-75
2023/05/07 05:02:10;;;;;;;12.97;11.97;;;12.60;99.90;;;;;;4992622;28;20180;-74
2023/05/07 05:04:37;;;;;;;19.07;18.00;;;12.80;99.90;;;;;;4990666;28;20212;-74
2023/05/07 05:07:05;;;;;;;44.13;41.67;;;13.00;99.90;;;;;;4991677;28;20651;-74
2023/05/07 05:09:31;;;;;;;40.53;38.43;;;13.20;99.90;;;;;;4992087;28;20185;-74
2023/05/07 05:11:57;;;;;;;12.43;11.73;;;13.20;99.90;;;;;;4992182;28;20652;-74
2023/05/07 05:14:23;;;;;;;13.27;12.43;;;13.20;99.90;;;;;;4985948;28;20220;-74
2023/05/07 05:16:49;;;;;;;13.33;12.53;;;13.20;99.90;;;;;;4971802;28;20272;-74
2023/05/07 05:19:15;;;;;;;14.27;13.57;;;13.20;99.90;;;;;;4972863;28;20212;-74
2023/05/07 05:21:41;;;;;;;15.43;14.73;;;13.20;99.90;;;;;;4972932;28;20264;-74
2023/05/07 05:24:06;;;;;;;16.03;15.13;;;13.30;99.90;;;;;;4975727;28;20604;-74
2023/05/07 05:26:32;;;;;;;15.80;15.00;;;13.40;99.90;;;;;;4991834;28;20212;-74
2023/05/07 05:28:58;;;;;;;14.83;14.03;;;13.40;99.90;;;;;;4991504;28;20191;-74
2023/05/07 05:31:24;;;;;;;13.27;12.47;;;13.40;99.90;;;;;;4990869;28;20238;-74
2023/05/07 05:33:50;;;;;;;12.23;11.63;;;13.40;99.90;;;;;;4990584;28;20211;-74
2023/05/07 05:36:16;;;;;;;11.73;10.83;;;13.30;99.90;;;;;;4972800;28;20251;-74
2023/05/07 05:38:41;;;;;;;9.53;9.00;;;13.30;99.90;;;;;;4970611;28;20257;-74
2023/05/07 05:41:07;;;;;;;14.73;13.90;;;13.30;99.90;;;;;;4972636;28;20665;-74
2023/05/07 05:43:33;;;;;;;62.53;59.50;;;13.40;99.90;;;;;;4971088;28;20228;-74
2023/05/07 05:46:00;;;;;;;17.17;16.10;;;13.90;99.90;;;;;;4989119;28;20180;-74
2023/05/07 05:48:25;;;;;;;37.13;35.30;;;14.50;99.90;;;;;;4991334;28;20211;-75
2023/05/07 05:50:51;;;;;;;18.13;17.07;;;15.30;99.90;;;;;;4990800;28;20648;-74
2023/05/07 05:53:17;;;;;;;11.70;11.10;;;15.90;99.90;;;;;;4991670;28;20205;-74
2023/05/07 05:55:43;;;;;;;11.60;10.90;;;16.90;99.90;;;;;;4975715;28;20191;-74
2023/05/07 05:58:09;;;;;;;75.05;71.30;;;17.80;99.90;;;;;;4972167;28;20189;-74
2023/05/07 06:00:35;;;;;;;21.00;20.00;;;18.60;99.90;;;;;;4972066;28;20185;-74
2023/05/07 06:03:01;;;;;;;6.50;6.20;;;19.30;99.90;;;;;;4970602;28;20217;-72
2023/05/07 06:05:26;;;;;;;10.05;9.48;;;19.80;99.90;;;;;;4985096;28;20231;-72
2023/05/07 06:07:52;;;;;;;10.75;10.23;;;20.30;99.90;;;;;;4994212;28;20215;-75
2023/05/07 06:10:18;;;;;;;14.27;13.40;;;20.60;99.90;;;;;;4995313;28;20678;-74
2023/05/07 06:12:44;;;;;;;26.33;25.08;;;20.60;99.90;;;;;;4995070;28;20180;-72
2023/05/07 06:15:10;;;;;;;17.95;17.02;;;20.50;99.90;;;;;;4983667;28;20584;-72
2023/05/07 06:17:36;;;;;;;9.65;9.23;;;20.40;99.90;;;;;;4976859;28;20577;-73
2023/05/07 06:20:02;;;;;;;10.63;10.13;;;20.80;99.90;;;;;;4975844;28;20189;-73
2023/05/07 06:22:28;;;;;;;16.95;16.15;;;21.30;99.90;;;;;;4975066;28;20189;-73
2023/05/07 06:24:54;;;;;;;8.50;8.02;;;21.80;99.90;;;;;;4983182;28;20211;-72
2023/05/07 06:27:19;;;;;;;5.28;4.97;;;22.00;99.90;;;;;;4995533;28;20176;-72
2023/05/07 06:29:48;;;;;;;6.15;5.75;;;22.50;99.90;;;;;;4991928;28;20172;-72
2023/05/07 06:32:14;;;;;;;8.70;8.30;;;22.70;99.90;;;;;;4971794;28;20192;-73
2023/05/07 06:34:40;;;;;;;8.98;8.50;;;22.90;99.90;;;;;;4982866;28;20276;-72
2023/05/07 06:37:06;;;;;;;11.07;10.43;;;22.90;99.90;;;;;;4992678;28;20483;-75
2023/05/07 06:39:33;;;;;;;11.45;10.85;;;22.70;99.90;;;;;;4975515;28;20184;-74
2023/05/07 06:42:00;;;;;;;9.07;8.50;;;22.20;99.90;;;;;;4974507;28;20735;-73
2023/05/07 06:44:26;;;;;;;4.95;4.65;;;21.60;99.90;;;;;;4973703;28;20602;-74
2023/05/07 06:46:52;;;;;;;12.52;11.82;;;21.10;99.90;;;;;;4974053;28;20185;-74
2023/05/07 06:49:18;;;;;;;21.20;20.20;;;21.10;99.90;;;;;;4968696;28;20181;-74
2023/05/07 06:51:43;;;;;;;22.88;21.58;;;21.00;99.90;;;;;;4965171;28;20192;-74
2023/05/07 06:54:09;;;;;;;27.35;25.95;;;20.80;99.90;;;;;;4972976;28;20205;-74
2023/05/07 06:56:35;;;;;;;26.30;25.00;;;21.10;99.90;;;;;;4977541;28;20185;-74
2023/05/07 06:59:02;;;;;;;24.15;23.05;;;21.30;99.90;;;;;;4975033;28;20185;-74
2023/05/07 07:01:28;;;;;;;24.05;22.83;;;20.90;99.90;;;;;;4973855;28;20189;-74
2023/05/07 07:03:54;;;;;;;15.75;15.02;;;20.60;99.90;;;;;;4973759;28;20228;-74
2023/05/07 07:06:20;;;;;;;14.55;13.75;;;20.70;99.90;;;;;;4975253;28;20184;-75
2023/05/07 07:08:45;;;;;;;12.43;11.82;;;20.80;99.90;;;;;;4973561;28;20266;-74
2023/05/07 07:11:12;;;;;;;8.70;8.30;;;20.70;99.90;;;;;;4975002;28;20177;-74
2023/05/07 07:13:37;;;;;;;14.77;13.77;;;21.10;99.90;;;;;;4975361;28;20712;-73
2023/05/07 07:16:03;;;;;;;27.63;26.15;;;21.70;99.90;;;;;;4990864;28;20289;-72
2023/05/07 07:18:29;;;;;;;14.18;13.48;;;22.20;99.90;;;;;;4992901;28;20564;-72
2023/05/07 07:20:55;;;;;;;4.65;4.22;;;22.70;99.90;;;;;;4993497;28;20899;-72
2023/05/07 07:23:21;;;;;;;5.88;5.57;;;23.00;99.90;;;;;;4974757;28;20209;-72
2023/05/07 07:25:47;;;;;;;6.72;6.43;;;23.60;99.90;;;;;;4988239;28;20181;-72
2023/05/07 07:28:12;;;;;;;7.25;6.85;;;23.80;99.90;;;;;;4992454;28;20348;-72
2023/05/07 07:30:38;;;;;;;7.45;6.97;;;23.90;99.90;;;;;;4993693;28;20815;-72
2023/05/07 07:33:05;;;;;;;3.92;3.78;;;24.40;99.90;;;;;;4994082;28;20251;-73
2023/05/07 07:35:31;;;;;;;4.25;4.03;;;24.50;99.90;;;;;;4982512;28;20181;-73
2023/05/07 07:37:57;;;;;;;4.30;4.10;;;23.80;99.60;;;;;;4974047;28;20193;-71
2023/05/07 07:40:23;;;;;;;4.32;4.13;;;23.80;99.60;;;;;;4974533;28;20189;-71
2023/05/07 07:42:49;;;;;;;4.28;3.90;;;23.80;99.30;;;;;;4974341;28;20182;-71
2023/05/07 07:45:14;;;;;;;4.97;4.68;;;23.60;99.50;;;;;;4981996;28;20214;-71
2023/05/07 07:47:40;;;;;;;4.50;4.18;;;23.40;99.90;;;;;;4973261;28;20185;-71
2023/05/07 07:50:07;;;;;;;4.05;3.95;;;23.90;99.90;;;;;;4972851;28;20940;-71
2023/05/07 07:52:33;;;;;;;4.10;3.90;;;23.70;99.60;;;;;;4973227;28;20185;-71
2023/05/07 07:54:59;;;;;;;5.68;5.30;;;23.60;99.90;;;;;;4977258;28;20184;-71
2023/05/07 07:57:25;;;;;;;4.88;4.50;;;23.60;99.90;;;;;;4991232;28;20676;-71
2023/05/07 07:59:51;;;;;;;4.25;4.05;;;23.60;99.90;;;;;;4993766;28;20275;-71
2023/05/07 08:02:17;;;;;;;4.50;4.30;;;23.60;99.50;;;;;;4993805;28;20342;-71
2023/05/07 08:04:43;;;;;;;4.43;4.22;;;24.10;99.90;;;;;;4984683;28;20224;-71
2023/05/07 08:07:12;;;;;;;6.05;5.70;;;24.80;98.30;;;;;;4958317;28;20181;-71
2023/05/07 08:09:39;;;;;;;67.97;64.65;;;25.40;98.10;;;;;;4954936;28;20177;-71
2023/05/07 08:12:06;;;;;;;48.03;45.63;;;26.00;95.30;;;;;;4969945;28;20268;-71
2023/05/07 08:14:31;;;;;;;27.45;26.13;;;25.10;96.10;;;;;;4979340;28;20227;-70
2023/05/07 08:16:57;;;;;;;22.48;21.20;;;25.00;96.90;;;;;;4992920;28;20184;-70
2023/05/07 08:19:23;;;;;;;29.45;28.05;;;25.00;97.10;;;;;;4977071;28;20196;-71
2023/05/07 08:21:49;;;;;;;39.58;37.67;;;25.20;97.40;;;;;;4972732;28;20187;-71
2023/05/07 08:24:15;;;;;;;17.63;16.73;;;25.00;96.30;;;;;;4976107;28;20208;-70
2023/05/07 08:26:41;;;;;;;8.40;7.90;;;24.50;97.20;;;;;;5005819;28;20545;-71
2023/05/07 08:29:07;;;;;;;7.88;7.38;;;24.40;97.80;;;;;;4997121;28;20187;-72
2023/05/07 08:31:33;;;;;;;10.70;10.10;;;24.80;97.60;;;;;;4995025;28;20196;-72
2023/05/07 08:33:59;;;;;;;9.00;8.50;;;25.00;97.00;;;;;;4993234;28;20200;-72
2023/05/07 08:36:25;;;;;;;18.48;17.63;;;24.90;97.40;;;;;;4973727;28;20219;-72
2023/05/07 08:38:52;;;;;;;55.38;52.58;;;25.40;97.00;;;;;;4973508;28;20184;-70
2023/05/07 08:41:18;;;;;;;80.03;76.18;;;26.10;95.50;;;;;;4972591;28;20657;-71
2023/05/07 08:43:48;;;;;;;98.05;93.25;;;26.80;94.90;;;;;;4973470;28;20216;-71
2023/05/07 08:46:21;;;;;;;61.72;58.75;;;26.90;93.40;;;;;;4992181;28;20651;-71
2023/05/07 08:48:50;;;;;;;45.10;42.92;;;27.00;93.20;;;;;;4991405;28;20181;-71
2023/05/07 08:51:18;;;;;;;75.53;71.82;;;26.70;91.50;;;;;;4992947;28;20181;-71
2023/05/07 08:53:45;;;;;;;52.88;50.22;;;26.30;92.60;;;;;;4992899;28;20212;-70
2023/05/07 08:56:11;;;;;;;78.72;75.00;;;26.20;91.60;;;;;;4973174;28;20263;-70
2023/05/07 08:58:37;;;;;;;88.10;83.72;;;26.20;92.40;;;;;;4972971;28;20200;-70
2023/05/07 09:01:14;;;;;;;83.30;79.20;;;26.00;91.70;;;;;;4973303;28;20193;-71
2023/05/07 09:03:44;;;;;;;64.68;61.25;;;26.00;92.20;;;;;;4973229;28;20223;-71
2023/05/07 09:06:10;;;;;;;63.72;60.47;;;26.40;90.70;;;;;;4990786;28;20180;-71
2023/05/07 09:08:36;;;;;;;86.15;82.00;;;26.20;90.30;;;;;;4991040;28;20210;-71
2023/05/07 09:11:02;;;;;;;69.53;66.22;;;26.30;91.30;;;;;;4991401;28;20184;-71
2023/05/07 09:13:28;;;;;;;63.65;60.60;;;26.40;90.10;;;;;;5009412;23;20232;-74
2023/05/07 09:15:54;;;;;;;47.95;45.63;;;26.40;90.10;;;;;;4988178;28;20255;-76
2023/05/07 09:18:20;;;;;;;48.83;46.42;;;26.70;88.70;;;;;;4990484;28;20813;-76
2023/05/07 09:20:46;;;;;;;52.72;49.92;;;26.40;88.60;;;;;;4992443;28;20180;-74
2023/05/07 09:23:12;;;;;;;52.17;49.53;;;26.30;88.60;;;;;;4992354;28;20216;-75
2023/05/07 09:25:38;;;;;;;25.83;24.55;;;26.90;89.40;;;;;;4977835;28;20273;-75
2023/05/07 09:28:06;;;;;;;13.55;12.95;;;27.50;86.80;;;;;;4971298;28;20181;-75
2023/05/07 09:30:33;;;;;;;4.82;4.63;;;27.80;84.40;;;;;;4974547;28;20208;-75
2023/05/07 09:33:00;;;;;;;5.97;5.68;;;28.10;83.20;;;;;;4975225;28;20181;-75
2023/05/07 09:35:29;;;;;;;6.20;5.90;;;28.30;80.60;;;;;;4982665;28;20184;-75
2023/05/07 09:37:57;;;;;;;5.32;5.05;;;28.00;80.00;;;;;;4990614;28;20176;-75
2023/05/07 09:40:30;;;;;;;5.28;4.90;;;27.50;81.60;;;;;;4990662;28;20184;-75
2023/05/07 09:42:56;;;;;;;6.45;6.15;;;27.80;81.10;;;;;;4991892;28;20540;-75
2023/05/07 09:45:26;;;;;;;5.47;5.28;;;27.80;81.00;;;;;;4981656;28;20197;-75
2023/05/07 09:47:55;;;;;;;5.72;5.28;;;28.10;80.80;;;;;;4971484;28;20185;-75
2023/05/07 09:50:27;;;;;;;6.05;5.75;;;28.70;78.90;;;;;;4972855;28;20192;-75
2023/05/07 09:52:55;;;;;;;4.65;4.32;;;28.30;80.50;;;;;;4974157;28;20181;-75
2023/05/07 09:55:21;;;;;;;4.05;3.85;;;28.30;77.90;;;;;;4987362;28;20184;-75
2023/05/07 09:57:51;;;;;;;4.57;4.38;;;28.10;76.90;;;;;;4994980;28;20591;-75
2023/05/07 10:00:21;;;;;;;10.35;7.72;;;27.60;77.80;;;;;;4992189;28;20172;-75
2023/05/07 10:02:52;;;;;;;6.00;5.72;;;27.40;79.40;;;;;;4991914;28;20184;-75
2023/05/07 10:05:22;;;;;;;6.50;6.03;;;27.40;78.80;;;;;;4982078;28;20716;-74
2023/05/07 10:07:49;;;;;;;6.72;6.32;;;27.60;77.30;;;;;;4972116;28;20185;-75
2023/05/07 10:10:15;;;;;;;5.13;4.82;;;28.20;76.20;;;;;;4972211;28;20205;-76
2023/05/07 10:12:42;;;;;;;3.60;3.50;;;28.80;74.70;;;;;;4971214;28;20188;-75
2023/05/07 10:15:11;;;;;;;4.35;4.00;;;29.40;72.70;;;;;;4979832;28;20223;-75
2023/05/07 10:17:39;;;;;;;6.10;5.82;;;30.10;70.00;;;;;;4991983;28;20181;-75
2023/05/07 10:20:06;;;;;;;12.02;11.32;;;30.30;68.80;;;;;;4990831;28;20243;-75
2023/05/07 10:22:48;;;;;;;9.60;9.10;;;30.10;68.00;;;;;;4991964;28;20259;-75
2023/05/07 10:25:25;;;;;;;6.10;5.50;;;29.20;70.30;;;;;;4982742;28;20204;-77
2023/05/07 10:27:53;;;;;;;3.70;3.42;;;28.10;73.00;;;;;;4972138;28;20723;-76
2023/05/07 10:30:31;;;;;;;3.72;3.53;;;27.90;73.90;;;;;;4972130;28;20204;-74
2023/05/07 10:33:05;;;;;;;3.65;3.33;;;27.70;74.50;;;;;;4971978;28;20211;-75
2023/05/07 10:35:37;;;;;;;3.47;3.38;;;28.10;74.30;;;;;;4980971;28;20661;-76
2023/05/07 10:38:04;;;;;;;3.70;3.50;;;28.30;73.40;;;;;;4989846;28;20196;-76
2023/05/07 10:40:31;;;;;;;3.85;3.40;;;28.40;72.90;;;;;;4990101;28;20208;-75
2023/05/07 10:43:01;;;;;;;3.63;3.33;;;29.00;72.50;;;;;;4991165;28;20244;-76
2023/05/07 10:45:28;;;;;;;5.22;4.85;;;29.60;69.90;;;;;;4981609;28;20181;-76
2023/05/07 10:48:13;;;;;;;18.95;17.95;;;30.20;68.80;;;;;;4971419;28;20177;-75
2023/05/07 10:50:43;;;;;;;21.02;20.00;;;30.70;66.30;;;;;;4970948;28;20181;-75
2023/05/07 10:53:20;;;;;;;8.50;8.20;;;29.60;67.80;;;;;;4973136;28;20185;-75
2023/05/07 10:55:48;;;;;;;6.32;5.93;;;28.90;68.30;;;;;;4986932;28;20196;-75
2023/05/07 10:58:28;;;;;;;7.93;7.53;;;29.30;69.60;;;;;;4993467;28;20242;-75
2023/05/07 11:01:02;;;;;;;9.15;8.65;;;29.20;68.10;;;;;;4995001;28;20234;-75
2023/05/07 11:03:29;;;;;;;9.48;8.90;;;29.20;67.70;;;;;;4994529;28;20306;-75
2023/05/07 11:06:15;;;;;;;12.95;12.23;;;29.70;67.20;;;;;;4981807;28;20268;-75
2023/05/07 11:08:53;;;;;;;25.15;23.85;;;30.30;65.50;;;;;;4974839;28;20187;-75
2023/05/07 11:11:22;;;;;;;29.48;28.08;;;30.20;65.00;;;;;;4975059;28;20181;-75
2023/05/07 11:13:50;;;;;;;25.08;23.83;;;29.80;64.40;;;;;;4974827;28;20295;-75
2023/05/07 11:16:27;;;;;;;25.35;24.00;;;29.80;64.50;;;;;;4988912;28;20651;-76
2023/05/07 11:18:54;;;;;;;35.58;33.80;;;30.10;64.70;;;;;;4994429;28;20610;-75
2023/05/07 11:21:38;;;;;;;34.05;32.42;;;30.60;64.40;;;;;;4993219;28;20255;-75
2023/05/07 11:24:06;;;;;;;25.95;24.65;;;30.00;64.40;;;;;;4993325;28;20699;-75
2023/05/07 11:26:43;;;;;;;17.75;16.67;;;29.30;65.70;;;;;;4975527;28;20256;-75
2023/05/07 11:29:14;;;;;;;22.15;20.90;;;28.90;66.50;;;;;;4973241;28;20185;-75
2023/05/07 11:31:40;;;;;;;22.35;21.25;;;29.50;65.50;;;;;;4975508;28;20181;-76
2023/05/07 11:34:07;;;;;;;36.08;34.17;;;29.90;64.80;;;;;;4974785;28;20213;-75
2023/05/07 11:36:33;;;;;;;35.80;34.08;;;30.60;61.80;;;;;;4990094;28;20192;-75
2023/05/07 11:38:59;;;;;;;35.25;33.53;;;30.20;61.50;;;;;;4992442;28;20181;-75
2023/05/07 11:41:36;;;;;;;27.67;26.38;;;29.60;63.40;;;;;;4993934;28;20207;-75
2023/05/07 11:44:02;;;;;;;19.05;18.05;;;28.90;65.80;;;;;;4992763;28;20307;-75
2023/05/07 11:46:28;;;;;;;8.07;7.40;;;28.60;65.40;;;;;;4976355;28;20208;-75
2023/05/07 11:48:55;;;;;;;7.32;6.63;;;28.20;66.30;;;;;;4973131;28;20189;-75
2023/05/07 11:51:23;;;;;;;7.93;7.53;;;28.00;66.20;;;;;;4974333;28;20178;-76
2023/05/07 11:53:50;;;;;;;7.20;6.82;;;28.20;65.10;;;;;;4974403;28;20586;-75
2023/05/07 11:56:18;;;;;;;6.88;6.57;;;28.20;64.60;;;;;;4988781;28;20185;-75
2023/05/07 11:58:46;;;;;;;7.10;6.57;;;28.50;64.80;;;;;;4995995;28;20189;-76
2023/05/07 12:01:13;;;;;;;6.10;5.70;;;28.40;65.20;;;;;;4993125;28;20184;-75
2023/05/07 12:03:45;;;;;;;4.95;4.68;;;27.70;65.90;;;;;;4992664;28;20281;-76
2023/05/07 12:06:12;;;;;;;4.18;3.90;;;27.60;66.60;;;;;;4970979;28;20188;-75
2023/05/07 12:08:39;;;;;;;3.85;3.75;;;27.70;68.00;;;;;;4959827;28;20562;-75
2023/05/07 12:11:12;;;;;;;4.05;3.83;;;27.50;67.40;;;;;;4956794;28;20701;-77
2023/05/07 12:13:38;;;;;;;4.25;3.95;;;27.20;66.70;;;;;;4973387;28;20255;-76
2023/05/07 12:16:05;;;;;;;4.05;3.75;;;27.20;66.90;;;;;;4985177;28;20216;-76
2023/05/07 12:18:31;;;;;;;3.22;3.08;;;27.20;67.10;;;;;;4992965;28;20180;-76
2023/05/07 12:20:58;;;;;;;3.30;3.10;;;27.30;67.30;;;;;;4992812;28;20234;-76
2023/05/07 12:23:24;;;;;;;3.85;3.65;;;27.20;67.10;;;;;;4991068;28;20204;-76
2023/05/07 12:25:50;;;;;;;3.38;3.25;;;26.70;69.60;;;;;;4983580;28;20756;-76
2023/05/07 12:28:17;;;;;;;3.85;3.65;;;26.60;68.90;;;;;;4993636;28;20272;-76
2023/05/07 12:30:44;;;;;;;3.78;3.58;;;26.40;69.00;;;;;;4996812;28;20597;-76
2023/05/07 12:33:11;;;;;;;3.92;3.60;;;26.20;68.80;;;;;;4995672;28;20176;-76
2023/05/07 12:35:41;;;;;;;4.05;3.85;;;26.30;68.30;;;;;;4995824;28;20172;-74
2023/05/07 12:38:13;;;;;;;3.30;3.10;;;26.20;67.20;;;;;;4992172;28;20188;-75
2023/05/07 12:40:47;;;;;;;5.03;4.72;;;26.00;68.70;;;;;;4975745;28;20217;-73
2023/05/07 12:43:17;;;;;;;9.07;8.48;;;25.90;69.60;;;;;;4977460;28;20189;-74
2023/05/07 12:45:44;;;;;;;8.38;7.97;;;25.70;71.60;;;;;;4982668;28;20206;-78
2023/05/07 12:48:10;;;;;;;8.35;7.85;;;25.60;71.10;;;;;;4998495;28;20212;-80
2023/05/07 12:50:36;;;;;;;6.93;6.63;;;25.40;71.50;;;;;;4999280;28;20192;-76
2023/05/07 12:53:07;;;;;;;8.02;7.53;;;25.30;72.10;;;;;;4999262;28;20180;-82
2023/05/07 12:55:42;;;;;;;6.00;5.50;;;25.20;72.40;;;;;;4985451;28;20661;-70
2023/05/07 12:58:13;;;;;;;5.60;5.07;;;25.10;73.20;;;;;;4971206;28;20233;-70
2023/05/07 13:00:39;;;;;;;9.40;5.80;;;25.00;72.80;;;;;;4974537;28;20181;-70
2023/05/07 13:03:05;;;;;;;9.18;8.70;;;24.70;73.60;;;;;;4972825;28;20808;-70
2023/05/07 13:05:32;;;;;;;18.45;17.52;;;24.60;74.90;;;;;;4973097;28;20189;-70
2023/05/07 13:07:58;;;;;;;30.40;28.98;;;24.50;75.60;;;;;;4972429;28;20177;-70
2023/05/07 13:10:24;;;;;;;36.50;34.10;;;24.50;76.70;;;;;;4971674;28;20261;-70
2023/05/07 13:12:51;;;;;;;29.88;28.20;;;24.40;76.80;;;;;;4971515;28;20309;-70
2023/05/07 13:15:17;;;;;;;30.05;28.55;;;24.30;75.20;;;;;;4976438;28;20216;-71
2023/05/07 13:17:43;;;;;;;33.33;31.73;;;24.30;75.10;;;;;;4991491;28;20558;-70
2023/05/07 13:20:12;;;;;;;60.50;57.50;;;24.10;75.60;;;;;;4991927;28;20184;-70
2023/05/07 13:22:39;;;;;;;55.90;53.03;;;23.90;79.20;;;;;;4992226;28;20192;-70
2023/05/07 13:25:05;;;;;;;41.08;38.85;;;23.60;81.20;;;;;;4989429;28;20266;-70
2023/05/07 13:27:31;;;;;;;31.20;29.52;;;23.50;83.50;;;;;;4972002;28;20672;-76
2023/05/07 13:29:57;;;;;;;19.27;18.13;;;23.30;82.60;;;;;;4972804;28;20185;-76
2023/05/07 13:32:23;;;;;;;11.32;10.82;;;23.20;83.80;;;;;;4960849;28;20192;-75
2023/05/07 13:34:49;;;;;;;13.30;12.23;;;23.00;85.10;;;;;;4954629;28;20213;-75
2023/05/07 13:37:15;;;;;;;15.48;14.27;;;22.90;86.20;;;;;;4969329;28;20197;-75
2023/05/07 13:39:41;;;;;;;14.35;13.30;;;22.90;86.50;;;;;;4990646;28;20189;-75
2023/05/07 13:42:07;;;;;;;28.83;27.25;;;22.70;86.10;;;;;;4990478;28;20196;-75
2023/05/07 13:44:33;;;;;;;7.22;6.57;;;22.30;90.20;;;;;;4990942;28;20216;-74
2023/05/07 13:46:59;;;;;;;9.55;8.75;;;21.90;91.70;;;;;;4971733;28;20193;-74
2023/05/07 13:49:25;;;;;;;7.72;7.22;;;21.60;93.10;;;;;;4972348;28;20649;-76
2023/05/07 13:51:50;;;;;;;9.27;8.43;;;21.40;94.30;;;;;;4971127;28;20184;-75
2023/05/07 13:54:16;;;;;;;9.48;8.68;;;21.30;95.50;;;;;;4971027;28;20213;-74
2023/05/07 13:56:42;;;;;;;10.70;10.02;;;21.10;95.70;;;;;;4986675;28;20664;-74
2023/05/07 13:59:08;;;;;;;11.10;10.40;;;21.00;96.00;;;;;;4990832;28;20188;-75
2023/05/07 14:01:34;;;;;;;11.52;10.93;;;21.00;95.20;;;;;;4991568;28;20212;-75
2023/05/07 14:03:59;;;;;;;11.30;10.70;;;20.90;95.50;;;;;;4991528;28;20216;-75
2023/05/07 14:06:25;;;;;;;9.18;8.77;;;21.00;96.00;;;;;;4977700;28;20189;-76
2023/05/07 14:08:51;;;;;;;10.10;9.50;;;20.90;96.60;;;;;;4971690;28;20177;-74
2023/05/07 14:11:17;;;;;;;10.05;9.55;;;21.00;96.90;;;;;;4972079;28;20272;-75
2023/05/07 14:13:43;;;;;;;10.38;9.88;;;21.00;97.10;;;;;;4971895;28;20217;-74
2023/05/07 14:16:09;;;;;;;11.27;10.57;;;21.20;97.10;;;;;;4981765;28;20191;-74
2023/05/07 14:18:36;;;;;;;12.80;12.00;;;21.30;96.80;;;;;;4990541;28;20652;-74
2023/05/07 14:21:06;;;;;;;9.07;8.57;;;21.20;98.00;;;;;;4991612;28;20195;-74
2023/05/07 14:23:31;;;;;;;7.75;7.25;;;21.10;99.90;;;;;;4991408;28;20743;-75
2023/05/07 14:25:57;;;;;;;10.05;7.30;;;21.00;99.90;;;;;;4981998;28;20196;-74
2023/05/07 14:28:23;;;;;;;8.10;7.70;;;20.90;99.90;;;;;;4974118;28;20216;-76
2023/05/07 14:30:49;;;;;;;7.47;7.10;;;20.80;99.90;;;;;;4976111;28;20186;-76
2023/05/07 14:33:15;;;;;;;5.93;5.63;;;20.90;99.90;;;;;;4974713;28;20305;-76
2023/05/07 14:35:41;;;;;;;7.80;7.25;;;20.90;99.90;;;;;;4979937;28;20549;-76
2023/05/07 14:38:07;;;;;;;16.85;15.18;;;20.80;99.90;;;;;;4994758;28;20566;-76
2023/05/07 14:40:32;;;;;;;13.30;12.40;;;20.60;99.90;;;;;;4995269;28;20183;-74
2023/05/07 14:42:58;;;;;;;93.95;89.20;;;20.20;99.90;;;;;;4995135;28;20215;-75
2023/05/07 14:45:24;;;;;;;61.63;56.88;;;19.80;99.90;;;;;;4991799;28;20173;-76
2023/05/07 14:47:50;;;;;;;15.43;14.50;;;19.50;99.90;;;;;;4975604;28;20181;-76
2023/05/07 14:50:15;;;;;;;26.45;25.05;;;19.20;99.90;;;;;;4974985;28;20177;-76
2023/05/07 14:52:41;;;;;;;26.50;24.67;;;19.00;99.90;;;;;;4975598;28;20177;-75
2023/05/07 14:55:07;;;;;;;22.10;20.92;;;18.80;99.90;;;;;;4976896;28;20288;-75
2023/05/07 14:57:34;;;;;;;26.80;25.45;;;18.70;99.90;;;;;;4997019;28;20192;-75
2023/05/07 15:00:04;;;;;;;30.42;28.92;;;18.70;99.90;;;;;;4998405;28;20645;-75
2023/05/07 15:02:30;;;;;;;30.88;29.35;;;18.70;99.90;;;;;;4996902;28;20556;-75
2023/05/07 15:04:55;;;;;;;28.73;27.23;;;18.80;99.90;;;;;;4997508;28;20211;-75
2023/05/07 15:07:21;;;;;;;24.25;22.98;;;18.80;99.90;;;;;;4975157;28;20185;-75
2023/05/07 15:09:47;;;;;;;35.53;33.85;;;18.80;99.90;;;;;;4973903;28;20188;-77
2023/05/07 15:12:14;;;;;;;17.30;16.40;;;18.90;99.90;;;;;;4975846;28;20177;-76
2023/05/07 15:14:40;;;;;;;30.17;28.75;;;19.00;99.90;;;;;;4975284;28;20216;-77
2023/05/07 15:17:05;;;;;;;124.00;117.75;;;19.20;99.90;;;;;;4990893;28;20194;-73
2023/05/07 15:19:31;;;;;;;185.27;175.95;;;19.40;99.90;;;;;;4995296;28;20275;-76
2023/05/07 15:21:58;;;;;;;181.13;172.10;;;19.50;99.90;;;;;;4994640;28;20192;-75
2023/05/07 15:24:24;;;;;;;201.45;191.20;;;19.50;99.90;;;;;;4994382;28;20715;-75
2023/05/07 15:26:51;;;;;;;203.43;193.15;;;19.60;99.90;;;;;;4979141;28;20189;-74
2023/05/07 15:29:17;;;;;;;196.38;186.57;;;19.70;99.90;;;;;;4973532;28;20213;-74
2023/05/07 15:31:43;;;;;;;141.25;134.45;;;19.70;99.90;;;;;;4974663;28;20263;-74
2023/05/07 15:34:09;;;;;;;148.40;141.15;;;19.60;99.90;;;;;;4973418;28;20208;-74
2023/05/07 15:36:35;;;;;;;174.25;165.50;;;19.50;99.90;;;;;;4985541;28;20184;-75